createdAt,value
2022-08-07T00:00:56.839Z,12.29
2022-08-07T00:06:01.212Z,12.27
2022-08-07T00:11:04.874Z,12.23
2022-08-07T00:16:07.612Z,12.19
2022-08-07T00:21:56.593Z,12.08
2022-08-07T00:26:49.444Z,11.95
2022-08-07T00:31:53.626Z,11.80
2022-08-07T00:36:55.844Z,11.66
2022-08-07T00:42:01.384Z,11.57
2022-08-07T00:47:06.447Z,11.54
2022-08-07T00:52:17.581Z,11.55
2022-08-07T00:57:23.081Z,11.56
2022-08-07T01:02:28.868Z,11.56
2022-08-07T01:07:31.713Z,11.52
2022-08-07T01:12:33.690Z,11.45
2022-08-07T01:17:35.585Z,11.39
2022-08-07T01:22:38.182Z,11.30
2022-08-07T01:27:55.602Z,11.25
2022-08-07T01:32:58.322Z,11.21
2022-08-07T01:37:59.587Z,11.18
2022-08-07T01:43:00.836Z,11.18
2022-08-07T01:48:19.976Z,11.16
2022-08-07T01:54:08.583Z,11.14
2022-08-07T01:58:53.544Z,11.12
2022-08-07T02:04:02.849Z,11.09
2022-08-07T02:09:09.108Z,11.07
2022-08-07T02:14:36.102Z,11.07
2022-08-07T02:20:07.817Z,11.02
2022-08-07T02:25:00.054Z,10.97
2022-08-07T02:30:07.064Z,10.96
2022-08-07T02:35:10.304Z,10.97
2022-08-07T02:40:30.742Z,11.00
2022-08-07T02:46:00.659Z,11.00
2022-08-07T02:51:06.374Z,11.00
2022-08-07T02:56:21.276Z,10.97
2022-08-07T03:01:35.370Z,10.96
2022-08-07T03:06:38.991Z,10.96
2022-08-07T03:11:52.206Z,10.98
2022-08-07T03:16:59.280Z,11.05
2022-08-07T03:22:01.578Z,11.12
2022-08-07T03:27:05.503Z,11.13
2022-08-07T03:32:13.019Z,11.13
2022-08-07T03:37:19.048Z,11.15
2022-08-07T03:42:29.559Z,11.18
2022-08-07T03:47:47.931Z,11.26
2022-08-07T03:52:55.046Z,11.36
2022-08-07T03:58:32.482Z,11.48
2022-08-07T04:03:19.023Z,11.57
2022-08-07T04:08:23.210Z,11.63
2022-08-07T04:13:27.574Z,11.72
2022-08-07T04:18:58.695Z,11.84
2022-08-07T04:24:06.008Z,11.98
2022-08-07T04:29:10.992Z,12.13
2022-08-07T04:34:16.602Z,12.25
2022-08-07T04:39:21.845Z,12.40
2022-08-07T04:44:27.008Z,12.56
2022-08-07T04:50:04.526Z,12.72
2022-08-07T04:58:07.319Z,12.91
2022-08-07T05:00:46.898Z,13.05
2022-08-07T05:05:58.147Z,13.20
2022-08-07T05:11:19.483Z,13.37
2022-08-07T05:16:22.134Z,13.50
2022-08-07T05:22:00.220Z,13.61
2022-08-07T05:26:54.236Z,15.26
2022-08-07T05:31:56.761Z,20.41
2022-08-07T05:36:58.683Z,25.03
2022-08-07T05:42:05.368Z,28.63
2022-08-07T05:47:17.872Z,31.38
2022-08-07T05:52:29.769Z,33.39
2022-08-07T05:57:34.640Z,34.92
2022-08-07T06:02:39.786Z,36.19
2022-08-07T06:08:14.504Z,36.84
2022-08-07T06:13:05.236Z,37.59
2022-08-07T06:18:15.852Z,38.32
2022-08-07T06:23:46.850Z,38.69
2022-08-07T06:28:59.333Z,39.07
2022-08-07T06:34:02.475Z,39.35
2022-08-07T06:40:16.544Z,39.53
2022-08-07T06:44:26.577Z,39.57
2022-08-07T06:49:35.603Z,39.76
2022-08-07T06:55:33.881Z,39.87
2022-08-07T07:00:18.302Z,40.16
2022-08-07T07:06:04.860Z,40.23
2022-08-07T07:10:47.267Z,40.01
2022-08-07T07:16:02.332Z,39.30
2022-08-07T07:21:19.232Z,39.15
2022-08-07T07:26:34.473Z,39.20
2022-08-07T07:31:44.497Z,38.92
2022-08-07T07:36:52.656Z,38.34
2022-08-07T07:42:08.896Z,38.03
2022-08-07T07:47:23.069Z,37.85
2022-08-07T07:52:26.277Z,37.12
2022-08-07T07:57:43.900Z,36.40
2022-08-07T08:03:04.816Z,36.59
2022-08-07T08:08:10.116Z,35.69
2022-08-07T08:13:53.424Z,34.23
2022-08-07T08:18:56.007Z,34.12
2022-08-07T08:24:36.265Z,33.87
2022-08-07T08:29:54.703Z,33.69
2022-08-07T08:34:58.448Z,33.85
2022-08-07T08:40:01.166Z,33.76
2022-08-07T08:45:41.546Z,33.09
2022-08-07T08:51:03.316Z,32.97
2022-08-07T08:56:24.675Z,32.50
2022-08-07T09:01:46.486Z,31.83
2022-08-07T09:07:12.273Z,30.90
2022-08-07T09:12:33.106Z,30.66
2022-08-07T09:18:16.745Z,30.61
2022-08-07T09:24:28.801Z,30.63
2022-08-07T09:30:05.754Z,30.60
2022-08-07T09:34:53.958Z,30.67
2022-08-07T09:40:05.780Z,30.41
2022-08-07T09:47:20.048Z,30.11
2022-08-07T09:50:52.414Z,29.95
2022-08-07T09:56:34.138Z,29.71
2022-08-07T10:02:16.715Z,29.23
2022-08-07T10:07:55.362Z,28.80
2022-08-07T10:14:01.378Z,28.89
2022-08-07T10:19:21.611Z,29.08
2022-08-07T10:25:00.052Z,29.05
2022-08-07T10:30:33.009Z,29.08
2022-08-07T10:36:05.181Z,28.28
2022-08-07T10:41:47.210Z,27.60
2022-08-07T10:46:53.679Z,27.61
2022-08-07T10:52:22.523Z,27.79
2022-08-07T10:58:12.215Z,28.14
2022-08-07T11:03:37.923Z,28.87
2022-08-07T11:08:56.900Z,29.02
2022-08-07T11:14:46.136Z,28.77
2022-08-07T11:19:55.218Z,28.93
2022-08-07T11:25:15.237Z,28.95
2022-08-07T11:30:19.998Z,28.90
2022-08-07T11:36:05.810Z,28.74
2022-08-07T11:41:18.238Z,28.82
2022-08-07T11:47:03.978Z,28.91
2022-08-07T11:52:35.819Z,28.71
2022-08-07T11:58:16.703Z,27.94
2022-08-07T12:03:59.707Z,27.26
2022-08-07T12:09:16.412Z,26.98
2022-08-07T12:14:21.178Z,26.62
2022-08-07T12:19:25.175Z,26.69
2022-08-07T12:25:08.057Z,26.36
2022-08-07T12:30:10.277Z,26.20
2022-08-07T12:35:15.287Z,26.23
2022-08-07T12:40:46.414Z,26.31
2022-08-07T12:45:52.260Z,26.40
2022-08-07T12:51:12.868Z,26.51
2022-08-07T12:56:26.629Z,26.55
2022-08-07T13:01:50.114Z,26.47
2022-08-07T13:08:13.663Z,26.45
2022-08-07T13:13:01.597Z,26.50
2022-08-07T13:18:26.510Z,26.64
2022-08-07T13:24:01.537Z,27.01
2022-08-07T13:29:06.754Z,27.46
2022-08-07T13:34:32.595Z,27.97
2022-08-07T13:40:34.847Z,28.02
2022-08-07T13:46:12.195Z,27.53
2022-08-07T13:51:00.583Z,26.81
2022-08-07T13:56:04.666Z,26.45
2022-08-07T14:01:15.795Z,26.27
2022-08-07T14:06:24.743Z,26.35
2022-08-07T14:11:53.398Z,26.58
2022-08-07T14:17:32.067Z,27.06
2022-08-07T14:22:34.616Z,27.38
2022-08-07T14:28:11.750Z,27.32
2022-08-07T14:33:04.660Z,27.00
2022-08-07T14:38:08.497Z,26.77
2022-08-07T14:43:58.070Z,26.66
2022-08-07T14:48:56.578Z,26.44
2022-08-07T14:54:30.234Z,26.38
2022-08-07T15:00:05.354Z,26.20
2022-08-07T15:04:53.292Z,26.10
2022-08-07T15:10:01.332Z,26.01
2022-08-07T15:15:22.235Z,25.88
2022-08-07T15:25:55.936Z,25.26
2022-08-07T15:31:05.556Z,24.93
2022-08-07T15:36:08.711Z,24.71
2022-08-07T15:41:24.446Z,24.64
2022-08-07T15:46:49.951Z,24.57
2022-08-07T15:57:00.378Z,24.04
2022-08-07T16:02:04.334Z,23.76
2022-08-07T16:08:30.536Z,23.55
2022-08-07T16:13:05.382Z,23.27
2022-08-07T16:18:50.759Z,23.21
2022-08-07T16:24:35.106Z,23.43
2022-08-07T16:30:11.001Z,23.71
2022-08-07T16:35:58.886Z,23.67
2022-08-07T16:41:41.740Z,23.49
2022-08-07T16:47:45.235Z,23.28
2022-08-07T16:54:02.907Z,23.26
2022-08-07T16:59:15.277Z,23.25
2022-08-07T17:04:35.061Z,23.25
2022-08-07T17:10:08.199Z,22.98
2022-08-07T17:15:13.099Z,22.72
2022-08-07T17:20:40.527Z,22.62
2022-08-07T17:25:52.893Z,22.28
2022-08-07T17:30:59.485Z,22.12
2022-08-07T17:36:19.924Z,21.99
2022-08-07T17:42:02.041Z,21.88
2022-08-07T17:47:16.934Z,21.70
2022-08-07T17:52:46.542Z,21.47
2022-08-07T17:58:01.639Z,21.25
2022-08-07T18:03:18.113Z,21.01
2022-08-07T18:08:27.453Z,20.79
2022-08-07T18:14:10.105Z,20.57
2022-08-07T18:21:12.640Z,20.33
2022-08-07T18:24:51.456Z,20.11
2022-08-07T18:30:31.377Z,19.94
2022-08-07T18:35:51.959Z,19.75
2022-08-07T18:41:09.345Z,19.57
2022-08-07T18:46:27.755Z,19.39
2022-08-07T18:52:35.135Z,19.23
2022-08-07T18:57:29.659Z,19.05
2022-08-07T19:03:16.553Z,18.89
2022-08-07T19:08:33.068Z,18.74
2022-08-07T19:14:11.708Z,18.61
2022-08-07T19:19:48.761Z,18.49
2022-08-07T19:24:52.200Z,18.39
2022-08-07T19:31:05.678Z,18.29
2022-08-07T19:35:26.088Z,18.17
2022-08-07T19:40:35.956Z,18.06
2022-08-07T19:46:04.816Z,17.96
2022-08-07T19:51:19.993Z,17.84
2022-08-07T19:58:01.917Z,17.77
2022-08-07T20:01:57.862Z,17.69
2022-08-07T20:06:59.986Z,17.59
2022-08-07T20:12:34.922Z,17.49
2022-08-07T20:17:31.890Z,17.37
2022-08-07T20:22:45.339Z,17.26
2022-08-07T20:27:58.050Z,17.17
2022-08-07T20:33:03.936Z,17.09
2022-08-07T20:38:07.067Z,17.02
2022-08-07T20:43:19.382Z,16.99
2022-08-07T20:48:30.327Z,16.96
2022-08-07T20:54:03.141Z,16.92
2022-08-07T20:59:03.609Z,16.92
2022-08-07T21:04:22.947Z,16.92
2022-08-07T21:09:51.520Z,16.91
2022-08-07T21:14:56.215Z,16.91
2022-08-07T21:20:04.869Z,16.90
2022-08-07T21:25:19.484Z,16.88
2022-08-07T21:30:31.274Z,16.89
2022-08-07T21:36:31.205Z,16.90
2022-08-07T21:42:00.530Z,16.86
2022-08-07T21:47:12.340Z,16.80
2022-08-07T21:52:55.664Z,16.75
2022-08-07T21:58:12.265Z,16.72
2022-08-07T22:03:47.229Z,16.72
2022-08-07T22:08:55.224Z,16.70
2022-08-07T22:13:59.330Z,16.67
2022-08-07T22:19:08.174Z,16.61
2022-08-07T22:24:16.725Z,16.56
2022-08-07T22:29:48.407Z,16.53
2022-08-07T22:34:56.059Z,16.49
2022-08-07T22:40:17.337Z,16.47
2022-08-07T22:46:21.280Z,16.44
2022-08-07T22:51:14.670Z,16.35
2022-08-07T22:56:28.777Z,16.30
2022-08-07T23:01:49.336Z,16.29
2022-08-07T23:07:33.634Z,16.29
2022-08-07T23:12:54.894Z,16.24
2022-08-07T23:18:05.467Z,16.19
2022-08-07T23:24:06.426Z,16.18
2022-08-07T23:29:43.540Z,16.12
2022-08-07T23:35:06.692Z,16.04
2022-08-07T23:40:14.187Z,15.94
2022-08-07T23:46:01.726Z,15.83
2022-08-07T23:50:54.567Z,15.69
2022-08-07T23:56:13.757Z,15.60
